Terminal Aerodrome Forecast
Issued by NWS

Home | Current Version | Previous Version | Text Only | Print | Product List | Glossary On
Versions: 1 2 3 4 5 6 7 8 9 10 11 12 13 14 15 16 17
872
FTUS43 KIND 030520
TAFLAF
TAF
KLAF 030520Z 0306/0406 VRB03KT P6SM OVC035
     FM031800 28004KT P6SM BKN035
     FM040000 VRB02KT P6SM BKN100
      AMD LTD TO CLD VIS AND WIND TIL 031400=

USA.gov is the U.S. government's official web portal to all federal, state and local government web resources and services.